createdAt,value
2022-11-17T00:02:42.409Z,13.65
2022-11-17T00:07:36.137Z,14.52
2022-11-17T00:12:48.402Z,15.98
2022-11-17T00:17:42.893Z,14.48
2022-11-17T00:22:37.382Z,13.85
2022-11-17T00:27:31.143Z,14.05
2022-11-17T00:32:43.493Z,12.95
2022-11-17T00:37:38.848Z,12.57
2022-11-17T00:42:33.031Z,13.18
2022-11-17T00:47:26.083Z,12.90
2022-11-17T00:52:20.358Z,13.30
2022-11-17T00:57:14.752Z,13.65
2022-11-17T01:02:09.184Z,13.45
2022-11-17T01:07:03.345Z,13.02
2022-11-17T01:11:57.162Z,12.75
2022-11-17T01:16:51.626Z,12.77
2022-11-17T01:21:46.265Z,14.57
2022-11-17T01:26:41.638Z,12.63
2022-11-17T01:31:40.671Z,13.52
2022-11-17T01:36:57.665Z,12.57
2022-11-17T01:41:51.683Z,15.25
2022-11-17T01:46:45.826Z,13.98
2022-11-17T01:51:42.597Z,11.68
2022-11-17T01:56:40.729Z,12.70
2022-11-17T02:01:34.920Z,11.32
2022-11-17T02:06:32.189Z,10.95
2022-11-17T02:11:25.983Z,12.35
2022-11-17T02:16:19.457Z,12.80
2022-11-17T02:21:34.295Z,12.30
2022-11-17T02:27:04.903Z,10.57
2022-11-17T02:32:23.329Z,10.80
2022-11-17T02:37:19.433Z,11.30
2022-11-17T02:42:20.677Z,11.52
2022-11-17T02:47:18.486Z,12.45
2022-11-17T02:52:11.744Z,13.05
2022-11-17T02:57:05.823Z,12.10
2022-11-17T03:02:41.577Z,13.88
2022-11-17T03:07:59.259Z,10.95
2022-11-17T03:13:01.828Z,11.68
2022-11-17T03:18:26.951Z,10.48
2022-11-17T03:23:25.165Z,10.98
2022-11-17T03:28:20.961Z,9.70
2022-11-17T03:33:23.324Z,10.40
2022-11-17T03:38:18.055Z,9.98
2022-11-17T03:43:13.573Z,10.40
2022-11-17T03:48:22.530Z,9.68
2022-11-17T03:53:17.030Z,10.70
2022-11-17T03:58:24.020Z,10.10
2022-11-17T04:03:17.889Z,10.38
2022-11-17T04:08:10.822Z,9.30
2022-11-17T04:13:22.782Z,10.77
2022-11-17T04:18:17.904Z,10.10
2022-11-17T04:23:15.112Z,11.60
2022-11-17T04:28:27.161Z,10.45
2022-11-17T04:33:21.254Z,10.65
2022-11-17T04:38:15.401Z,10.73
2022-11-17T04:43:09.324Z,10.48
2022-11-17T04:48:03.553Z,10.93
2022-11-17T04:52:57.545Z,11.30
2022-11-17T04:57:51.294Z,10.40
2022-11-17T05:02:45.721Z,10.15
2022-11-17T05:07:39.753Z,10.13
2022-11-17T05:12:51.939Z,11.50
2022-11-17T05:17:45.825Z,10.10
2022-11-17T05:23:01.280Z,12.50
2022-11-17T05:27:57.734Z,12.30
2022-11-17T05:32:51.777Z,14.13
2022-11-17T05:37:45.485Z,17.08
2022-11-17T05:42:39.275Z,16.42
2022-11-17T05:47:33.700Z,17.58
2022-11-17T05:52:26.975Z,18.85
2022-11-17T05:57:28.044Z,19.10
2022-11-17T06:02:27.519Z,19.05
2022-11-17T06:07:20.961Z,18.35
2022-11-17T06:12:20.588Z,19.55
2022-11-17T06:17:25.924Z,14.32
2022-11-17T06:22:19.182Z,12.75
2022-11-17T06:27:15.266Z,13.02
2022-11-17T06:32:09.184Z,12.05
2022-11-17T06:37:02.679Z,12.02
2022-11-17T06:41:56.760Z,12.20
2022-11-17T06:46:51.045Z,15.45
2022-11-17T06:51:45.749Z,19.73
2022-11-17T06:56:39.510Z,19.95
2022-11-17T07:01:33.562Z,18.27
2022-11-17T07:06:27.488Z,17.40
2022-11-17T07:11:20.517Z,16.45
2022-11-17T07:16:22.884Z,17.33
2022-11-17T07:21:18.571Z,18.15
2022-11-17T07:26:12.648Z,23.58
2022-11-17T07:31:08.980Z,19.10
2022-11-17T07:36:11.905Z,19.35
2022-11-17T07:41:06.518Z,18.75
2022-11-17T07:46:04.629Z,20.23
2022-11-17T07:51:00.013Z,19.13
2022-11-17T07:55:54.317Z,17.90
2022-11-17T08:00:48.483Z,18.13
2022-11-17T08:05:43.784Z,16.63
2022-11-17T08:10:38.331Z,17.23
2022-11-17T08:15:32.964Z,15.57
2022-11-17T08:20:26.216Z,14.18
2022-11-17T08:25:24.832Z,13.57
2022-11-17T08:30:38.506Z,13.10
2022-11-17T08:35:37.470Z,15.07
2022-11-17T08:45:27.013Z,12.82
2022-11-17T08:50:21.471Z,14.65
2022-11-17T08:55:17.356Z,19.60
2022-11-17T09:00:11.415Z,19.20
2022-11-17T09:05:07.010Z,21.08
2022-11-17T09:10:01.323Z,21.50
2022-11-17T09:14:54.965Z,21.85
2022-11-17T09:19:49.432Z,23.42
2022-11-17T09:24:43.233Z,22.00
2022-11-17T09:29:36.219Z,23.30
2022-11-17T09:34:30.421Z,22.92
2022-11-17T09:39:25.334Z,25.17
2022-11-17T09:44:43.261Z,22.88
2022-11-17T09:50:02.950Z,21.20
2022-11-17T09:55:21.576Z,21.48
2022-11-17T10:00:22.352Z,19.63
2022-11-17T10:05:27.329Z,19.60
2022-11-17T10:10:26.180Z,20.30
2022-11-17T10:15:26.949Z,21.23
2022-11-17T10:20:20.942Z,20.90
2022-11-17T10:25:41.527Z,23.35
2022-11-17T10:30:35.556Z,22.58
2022-11-17T10:35:36.863Z,22.10
2022-11-17T10:40:32.569Z,24.23
2022-11-17T10:45:25.914Z,26.27
2022-11-17T10:50:47.512Z,23.00
2022-11-17T10:55:46.420Z,24.80
2022-11-17T11:00:40.900Z,23.90
2022-11-17T11:05:35.337Z,25.00
2022-11-17T11:10:35.668Z,26.67
2022-11-17T11:15:33.443Z,27.70
2022-11-17T11:21:13.788Z,28.27
2022-11-17T11:26:31.074Z,26.75
2022-11-17T11:31:33.997Z,24.55
2022-11-17T11:36:54.128Z,23.17
2022-11-17T11:42:22.367Z,25.70
2022-11-17T11:47:47.612Z,20.60
2022-11-17T11:52:45.878Z,23.52
2022-11-17T11:58:19.672Z,22.37
2022-11-17T12:03:40.844Z,19.98
2022-11-17T12:08:41.214Z,21.58
2022-11-17T12:13:36.141Z,23.70
2022-11-17T12:18:34.213Z,21.45
2022-11-17T12:23:29.597Z,20.05
2022-11-17T12:28:39.829Z,21.95
2022-11-17T12:33:54.917Z,19.92
2022-11-17T12:38:48.844Z,21.58
2022-11-17T12:43:43.059Z,20.20
2022-11-17T12:48:42.547Z,20.33
2022-11-17T12:53:35.721Z,20.83
2022-11-17T12:58:36.177Z,21.58
2022-11-17T13:04:09.539Z,21.10
2022-11-17T13:09:24.382Z,22.52
2022-11-17T13:14:19.224Z,26.75
2022-11-17T13:19:38.755Z,22.13
2022-11-17T13:24:37.466Z,24.27
2022-11-17T13:29:30.411Z,23.60
2022-11-17T13:34:24.441Z,23.88
2022-11-17T13:39:21.743Z,24.25
2022-11-17T13:44:24.022Z,24.48
2022-11-17T13:49:36.709Z,24.70
2022-11-17T13:54:29.700Z,25.13
2022-11-17T13:59:43.045Z,26.58
2022-11-17T14:04:37.636Z,25.27
2022-11-17T14:09:35.183Z,25.08
2022-11-17T14:14:44.328Z,25.98
2022-11-17T14:19:37.661Z,26.42
2022-11-17T14:24:32.173Z,25.83
2022-11-17T14:29:25.496Z,27.00
2022-11-17T14:34:21.074Z,29.65
2022-11-17T14:39:18.695Z,26.75
2022-11-17T14:44:13.728Z,29.60
2022-11-17T14:49:46.170Z,29.60
2022-11-17T14:55:20.072Z,29.40
2022-11-17T15:00:20.124Z,28.63
2022-11-17T15:05:14.771Z,27.27
2022-11-17T15:10:11.366Z,26.95
2022-11-17T15:15:06.546Z,26.70
2022-11-17T15:20:01.939Z,28.73
2022-11-17T15:24:56.342Z,29.10
2022-11-17T15:29:50.898Z,27.50
2022-11-17T15:34:45.094Z,29.65
2022-11-17T15:39:39.070Z,31.80
2022-11-17T15:44:31.379Z,30.85
2022-11-17T15:49:25.835Z,31.60
2022-11-17T15:54:21.062Z,31.75
2022-11-17T15:59:15.645Z,31.60
2022-11-17T16:04:11.453Z,31.77
2022-11-17T16:09:06.577Z,34.03
2022-11-17T16:14:01.123Z,34.20
2022-11-17T16:18:55.784Z,32.17
2022-11-17T16:23:51.056Z,34.90
2022-11-17T16:28:44.724Z,32.00
2022-11-17T16:33:38.755Z,34.67
2022-11-17T16:38:32.687Z,33.40
2022-11-17T16:43:27.263Z,33.75
2022-11-17T16:48:20.783Z,33.72
2022-11-17T16:53:14.783Z,39.33
2022-11-17T16:58:08.729Z,38.50
2022-11-17T17:03:03.985Z,41.67
2022-11-17T17:07:57.788Z,35.58
2022-11-17T17:12:51.941Z,37.85
2022-11-17T17:17:45.867Z,43.13
2022-11-17T17:22:39.985Z,43.72
2022-11-17T17:27:34.449Z,40.75
2022-11-17T17:32:27.607Z,43.38
2022-11-17T17:37:21.356Z,49.38
2022-11-17T17:42:15.573Z,53.45
2022-11-17T17:47:09.558Z,43.65
2022-11-17T17:52:03.064Z,44.78
2022-11-17T17:56:58.577Z,42.65
2022-11-17T18:01:52.773Z,45.85
2022-11-17T18:07:06.059Z,42.78
2022-11-17T18:11:59.286Z,50.15
2022-11-17T18:16:54.298Z,46.55
2022-11-17T18:21:48.353Z,42.53
2022-11-17T18:26:42.783Z,45.38
2022-11-17T18:31:38.591Z,43.50
2022-11-17T18:36:33.136Z,41.05
2022-11-17T18:41:27.367Z,49.35
2022-11-17T18:46:23.372Z,39.88
2022-11-17T18:51:20.290Z,39.75
2022-11-17T18:56:15.481Z,38.38
2022-11-17T19:01:39.025Z,39.72
2022-11-17T19:06:33.457Z,35.33
2022-11-17T19:11:29.988Z,34.92
2022-11-17T19:16:25.859Z,33.80
2022-11-17T19:21:40.096Z,32.28
2022-11-17T19:26:36.904Z,33.75
2022-11-17T19:31:30.910Z,35.65
2022-11-17T19:36:30.538Z,35.03
2022-11-17T19:41:45.787Z,34.60
2022-11-17T19:46:40.492Z,33.92
2022-11-17T19:51:39.751Z,33.35
2022-11-17T19:56:38.806Z,33.80
2022-11-17T20:01:33.058Z,35.97
2022-11-17T20:06:29.320Z,31.98
2022-11-17T20:11:26.679Z,37.00
2022-11-17T20:16:22.458Z,32.88
2022-11-17T20:21:17.029Z,31.05
2022-11-17T20:26:16.629Z,35.03
2022-11-17T20:31:23.400Z,34.58
2022-11-17T20:36:19.655Z,36.70
2022-11-17T20:41:14.067Z,35.95
2022-11-17T20:46:07.822Z,37.83
2022-11-17T20:51:07.381Z,37.17
2022-11-17T20:56:02.592Z,37.58
2022-11-17T21:00:56.300Z,38.17
2022-11-17T21:05:59.246Z,46.78
2022-11-17T21:11:00.384Z,35.85
2022-11-17T21:16:23.842Z,38.22
2022-11-17T21:21:56.474Z,38.25
2022-11-17T21:26:51.524Z,40.92
2022-11-17T21:32:24.726Z,38.30
2022-11-17T21:37:25.703Z,37.53
2022-11-17T21:42:20.808Z,37.42
2022-11-17T21:47:15.477Z,36.67
2022-11-17T21:52:09.832Z,37.55
2022-11-17T21:57:03.608Z,42.33
2022-11-17T22:01:57.746Z,40.65
2022-11-17T22:06:51.280Z,38.72
2022-11-17T22:11:45.625Z,41.08
2022-11-17T22:16:44.041Z,39.33
2022-11-17T22:21:39.181Z,40.57
2022-11-17T22:26:33.190Z,37.30
2022-11-17T22:31:26.993Z,37.42
2022-11-17T22:36:21.273Z,39.67
2022-11-17T22:41:17.421Z,37.78
2022-11-17T22:46:12.896Z,37.63
2022-11-17T22:51:09.183Z,35.42
2022-11-17T22:56:08.103Z,37.78
2022-11-17T23:01:07.102Z,37.97
2022-11-17T23:06:24.711Z,38.35
2022-11-17T23:16:33.540Z,36.45
2022-11-17T23:21:28.003Z,37.60
2022-11-17T23:26:22.036Z,34.45
2022-11-17T23:31:17.226Z,35.50
2022-11-17T23:36:33.942Z,38.38
2022-11-17T23:41:27.922Z,36.83
2022-11-17T23:46:24.100Z,35.78
2022-11-17T23:51:20.953Z,37.33
2022-11-17T23:56:16.017Z,38.60
